createdAt,value
2022-10-14T00:00:10.677Z,100218.53
2022-10-14T00:02:38.356Z,100219.13
2022-10-14T00:05:06.681Z,100224.13
2022-10-14T00:07:34.258Z,100211.25
2022-10-14T00:10:01.972Z,100216.22
2022-10-14T00:12:29.812Z,100219.13
2022-10-14T00:14:57.588Z,100214.34
2022-10-14T00:17:27.125Z,100220.78
2022-10-14T00:19:54.689Z,100211.66
2022-10-14T00:22:22.359Z,100214.19
2022-10-14T00:24:49.875Z,100213.53
2022-10-14T00:27:17.504Z,100218.31
2022-10-14T00:29:45.064Z,100217.28
2022-10-14T00:32:12.764Z,100210.44
2022-10-14T00:34:41.748Z,100209.22
2022-10-14T00:37:09.358Z,100215.66
2022-10-14T00:39:37.053Z,100211.91
2022-10-14T00:42:05.022Z,100215.88
2022-10-14T00:45:02.053Z,100213.56
2022-10-14T00:47:30.628Z,100226.63
2022-10-14T00:50:01.077Z,100221.44
2022-10-14T00:52:29.680Z,100215.63
2022-10-14T00:55:01.550Z,100218.75
2022-10-14T00:57:30.660Z,100223.31
2022-10-14T01:00:04.543Z,100213.78
2022-10-14T01:02:32.244Z,100222.25
2022-10-14T01:05:02.475Z,100211.31
2022-10-14T01:07:39.480Z,100214.41
2022-10-14T01:10:14.450Z,100211.69
2022-10-14T01:12:55.660Z,100219.13
2022-10-14T01:15:30.972Z,100208.19
2022-10-14T01:18:17.732Z,100212.09
2022-10-14T01:20:58.128Z,100208.34
2022-10-14T01:23:48.717Z,100201.13
2022-10-14T01:26:38.612Z,100201.13
2022-10-14T01:29:20.777Z,100192.22
2022-10-14T01:31:59.208Z,100188.28
2022-10-14T01:34:35.528Z,100188.09
2022-10-14T01:37:09.744Z,100189.31
2022-10-14T01:39:43.217Z,100178.75
2022-10-14T01:42:14.205Z,100174.25
2022-10-14T01:44:46.347Z,100172.56
2022-10-14T01:47:19.389Z,100178.97
2022-10-14T01:49:53.169Z,100179.38
2022-10-14T01:52:27.485Z,100171.50
2022-10-14T01:55:00.869Z,100165.06
2022-10-14T01:57:33.525Z,100164.91
2022-10-14T02:00:03.185Z,100167.78
2022-10-14T02:02:32.111Z,100167.56
2022-10-14T02:04:59.894Z,100166.53
2022-10-14T02:07:33.367Z,100156.16
2022-10-14T02:10:08.678Z,100156.16
2022-10-14T02:12:46.505Z,100153.69
2022-10-14T02:15:21.154Z,100149.78
2022-10-14T02:17:57.201Z,100148.13
2022-10-14T02:20:30.021Z,100146.22
2022-10-14T02:23:01.761Z,100144.13
2022-10-14T02:25:33.378Z,100145.56
2022-10-14T02:28:03.345Z,100136.44
2022-10-14T02:30:36.029Z,100135.00
2022-10-14T02:33:06.748Z,100133.34
2022-10-14T02:35:35.480Z,100128.34
2022-10-14T02:38:03.648Z,100131.06
2022-10-14T02:40:37.162Z,100125.50
2022-10-14T02:43:07.847Z,100117.63
2022-10-14T02:45:35.664Z,100121.56
2022-10-14T02:48:03.244Z,100122.19
2022-10-14T02:50:32.429Z,100116.59
2022-10-14T02:53:00.281Z,100117.19
2022-10-14T02:55:27.976Z,100115.78
2022-10-14T02:57:55.552Z,100104.78
2022-10-14T03:00:23.165Z,100100.25
2022-10-14T03:02:50.943Z,100100.69
2022-10-14T03:05:18.837Z,100099.00
2022-10-14T03:07:47.755Z,100095.47
2022-10-14T03:10:15.383Z,100094.03
2022-10-14T03:12:43.046Z,100088.22
2022-10-14T03:15:11.591Z,100091.75
2022-10-14T03:17:39.786Z,100091.75
2022-10-14T03:20:08.323Z,100085.97
2022-10-14T03:22:35.956Z,100088.66
2022-10-14T03:25:05.354Z,100091.97
2022-10-14T03:27:32.850Z,100086.34
2022-10-14T03:30:00.427Z,100092.97
2022-10-14T03:32:28.091Z,100094.44
2022-10-14T03:34:55.707Z,100089.44
2022-10-14T03:37:23.540Z,100092.97
2022-10-14T03:39:51.194Z,100084.25
2022-10-14T03:42:20.489Z,100086.94
2022-10-14T03:44:48.415Z,100089.44
2022-10-14T03:47:16.040Z,100085.69
2022-10-14T03:49:43.639Z,100077.38
2022-10-14T03:52:11.263Z,100075.53
2022-10-14T03:54:39.003Z,100079.25
2022-10-14T03:57:06.707Z,100070.78
2022-10-14T03:59:35.667Z,100076.72
2022-10-14T04:02:03.258Z,100073.03
2022-10-14T04:04:31.043Z,100083.00
2022-10-14T04:06:58.695Z,100076.16
2022-10-14T04:09:27.481Z,100076.16
2022-10-14T04:11:57.784Z,100077.22
2022-10-14T04:14:26.494Z,100076.31
2022-10-14T04:16:55.518Z,100076.16
2022-10-14T04:19:23.203Z,100074.09
2022-10-14T04:21:50.910Z,100069.34
2022-10-14T04:24:18.469Z,100070.78
2022-10-14T04:26:46.048Z,100069.53
2022-10-14T04:29:14.318Z,100077.22
2022-10-14T04:31:42.114Z,100073.69
2022-10-14T04:34:12.527Z,100071.84
2022-10-14T04:36:40.497Z,100070.56
2022-10-14T04:39:08.104Z,100071.53
2022-10-14T04:41:35.765Z,100071.63
2022-10-14T04:44:03.404Z,100059.34
2022-10-14T04:46:31.434Z,100057.47
2022-10-14T04:48:59.186Z,100057.94
2022-10-14T04:51:28.165Z,100055.00
2022-10-14T04:53:57.242Z,100047.81
2022-10-14T04:56:24.815Z,100052.97
2022-10-14T04:58:52.409Z,100051.53
2022-10-14T05:01:20.594Z,100054.22
2022-10-14T05:03:48.464Z,100055.00
2022-10-14T05:06:16.034Z,100044.47
2022-10-14T05:08:45.459Z,100051.50
2022-10-14T05:11:13.458Z,100047.97
2022-10-14T05:13:41.308Z,100034.13
2022-10-14T05:16:09.300Z,100038.03
2022-10-14T05:18:37.284Z,100035.09
2022-10-14T05:21:05.163Z,100035.91
2022-10-14T05:23:32.843Z,100032.19
2022-10-14T05:26:01.829Z,100033.22
2022-10-14T05:28:29.454Z,100028.50
2022-10-14T05:30:57.032Z,100026.63
2022-10-14T05:33:24.862Z,100035.09
2022-10-14T05:35:59.943Z,100027.03
2022-10-14T05:38:27.805Z,100023.66
2022-10-14T05:40:56.388Z,100021.41
2022-10-14T05:43:31.825Z,100025.97
2022-10-14T05:46:00.860Z,100027.59
2022-10-14T05:48:28.505Z,100021.03
2022-10-14T05:50:56.106Z,100030.75
2022-10-14T05:53:23.808Z,100025.56
2022-10-14T05:55:51.498Z,100025.78
2022-10-14T05:58:19.037Z,100023.28
2022-10-14T06:00:47.891Z,100028.50
2022-10-14T06:03:15.582Z,100026.09
2022-10-14T06:05:43.193Z,100019.06
2022-10-14T06:08:10.732Z,100013.63
2022-10-14T06:10:38.448Z,100015.88
2022-10-14T06:13:06.215Z,100018.34
2022-10-14T06:15:36.063Z,100018.75
2022-10-14T06:18:05.445Z,100022.44
2022-10-14T06:20:33.184Z,100022.47
2022-10-14T06:23:01.319Z,100023.50
2022-10-14T06:25:29.287Z,100014.75
2022-10-14T06:27:57.215Z,100019.31
2022-10-14T06:30:24.916Z,100005.34
2022-10-14T06:32:53.724Z,100011.97
2022-10-14T06:35:22.760Z,100006.78
2022-10-14T06:37:50.590Z,100010.25
2022-10-14T06:40:18.421Z,100010.44
2022-10-14T06:42:45.944Z,100013.13
2022-10-14T06:45:16.105Z,100016.53
2022-10-14T06:47:43.663Z,100020.50
2022-10-14T06:50:11.237Z,100021.47
2022-10-14T06:52:40.173Z,100017.59
2022-10-14T06:55:08.908Z,100019.28
2022-10-14T06:57:36.451Z,100021.84
2022-10-14T07:00:04.582Z,100026.38
2022-10-14T07:02:32.203Z,100030.84
2022-10-14T07:04:59.808Z,100027.44
2022-10-14T07:07:27.497Z,100023.09
2022-10-14T07:09:56.351Z,100030.72
2022-10-14T07:12:24.384Z,100024.13
2022-10-14T07:14:52.402Z,100018.53
2022-10-14T07:17:20.550Z,100024.84
2022-10-14T07:19:48.203Z,100014.09
2022-10-14T07:22:16.459Z,100020.53
2022-10-14T07:24:44.090Z,100011.84
2022-10-14T07:27:15.901Z,100013.28
2022-10-14T07:29:43.911Z,100006.34
2022-10-14T07:32:11.471Z,100009.59
2022-10-14T07:34:39.146Z,100013.84
2022-10-14T07:37:06.918Z,100014.28
2022-10-14T07:39:34.609Z,100012.13
2022-10-14T07:42:02.242Z,100019.84
2022-10-14T07:44:31.197Z,100019.22
2022-10-14T07:47:01.621Z,100022.09
2022-10-14T07:49:29.243Z,100019.34
2022-10-14T07:51:56.960Z,100019.28
2022-10-14T07:54:29.277Z,100020.94
2022-10-14T07:56:57.917Z,100019.66
2022-10-14T07:59:26.450Z,100012.66
2022-10-14T08:01:56.568Z,100020.00
2022-10-14T08:04:25.977Z,100022.19
2022-10-14T08:06:53.951Z,100022.03
2022-10-14T08:09:21.792Z,100024.22
2022-10-14T08:11:49.960Z,100029.75
2022-10-14T08:14:17.899Z,100026.09
2022-10-14T08:16:46.798Z,100016.13
2022-10-14T08:19:16.036Z,100017.25
2022-10-14T08:21:44.340Z,100014.78
2022-10-14T08:24:12.505Z,100015.97
2022-10-14T08:26:41.662Z,100016.03
2022-10-14T08:29:12.107Z,100014.53
2022-10-14T08:31:39.714Z,100008.81
2022-10-14T08:34:07.638Z,100011.34
2022-10-14T08:36:36.587Z,100015.75
2022-10-14T08:39:04.651Z,100017.69
2022-10-14T08:41:46.834Z,100021.56
2022-10-14T08:44:22.880Z,99998.72
2022-10-14T08:46:53.264Z,100000.34
2022-10-14T08:49:26.443Z,99991.19
2022-10-14T08:52:00.859Z,99997.28
2022-10-14T08:54:37.576Z,99998.44
2022-10-14T08:57:06.066Z,99998.84
2022-10-14T08:59:38.119Z,100002.59
2022-10-14T09:02:22.186Z,100013.03
2022-10-14T09:04:50.308Z,100013.16
2022-10-14T09:07:21.137Z,100013.84
2022-10-14T09:09:51.536Z,100009.81
2022-10-14T09:12:23.114Z,100004.69
2022-10-14T09:15:00.248Z,99997.06
2022-10-14T09:17:35.398Z,99998.56
2022-10-14T09:20:16.705Z,99983.91
2022-10-14T09:22:46.361Z,99987.59
2022-10-14T09:25:16.520Z,99989.78
2022-10-14T09:27:44.316Z,99987.31
2022-10-14T09:30:16.349Z,99989.97
2022-10-14T09:32:48.904Z,99981.69
2022-10-14T09:35:23.677Z,99976.41
2022-10-14T09:37:53.638Z,99966.88
2022-10-14T09:40:29.671Z,99969.56
2022-10-14T09:43:01.446Z,99963.19
2022-10-14T09:45:31.041Z,99956.63
2022-10-14T09:48:04.063Z,99948.19
2022-10-14T09:50:36.272Z,99943.94
2022-10-14T09:53:10.987Z,99941.44
2022-10-14T09:55:49.621Z,99934.53
2022-10-14T09:58:20.227Z,99931.59
2022-10-14T10:00:48.538Z,99929.47
2022-10-14T10:03:27.856Z,99917.59
2022-10-14T10:06:05.201Z,99918.28
2022-10-14T10:08:36.283Z,99912.41
2022-10-14T10:11:08.237Z,99904.06
2022-10-14T10:13:40.429Z,99906.50
2022-10-14T10:16:19.589Z,99913.78
2022-10-14T10:18:47.302Z,99910.44
2022-10-14T10:21:18.301Z,99909.84
2022-10-14T10:23:57.015Z,99911.69
2022-10-14T10:26:31.757Z,99905.38
2022-10-14T10:29:02.653Z,99903.53
2022-10-14T10:31:57.368Z,99908.34
2022-10-14T10:34:51.428Z,99902.28
2022-10-14T10:37:26.416Z,99902.41
2022-10-14T10:40:09.425Z,99904.09
2022-10-14T10:42:51.400Z,99909.94
2022-10-14T10:45:32.756Z,99895.19
2022-10-14T10:48:11.296Z,99895.00
2022-10-14T10:50:48.845Z,99899.94
2022-10-14T10:53:37.838Z,99893.13
2022-10-14T10:56:15.017Z,99892.22
2022-10-14T10:58:50.324Z,99879.19
2022-10-14T11:01:33.371Z,99885.28
2022-10-14T11:04:18.276Z,99881.16
2022-10-14T11:07:11.198Z,99878.53
2022-10-14T11:10:01.619Z,99872.88
2022-10-14T11:12:39.598Z,99868.91
2022-10-14T11:15:25.765Z,99876.72
2022-10-14T11:18:02.216Z,99868.59
2022-10-14T11:20:44.778Z,99867.56
2022-10-14T11:23:44.506Z,99856.44
2022-10-14T11:26:21.786Z,99855.81
2022-10-14T11:28:56.830Z,99848.06
2022-10-14T11:31:36.112Z,99844.09
2022-10-14T11:34:17.560Z,99833.03
2022-10-14T11:36:56.007Z,99833.41
2022-10-14T11:39:39.050Z,99837.09
2022-10-14T11:42:26.062Z,99833.75
2022-10-14T11:45:06.868Z,99833.41
2022-10-14T11:47:36.781Z,99826.41
2022-10-14T11:50:12.674Z,99832.78
2022-10-14T11:52:45.420Z,99816.94
2022-10-14T11:55:18.118Z,99814.44
2022-10-14T11:57:50.138Z,99810.66
2022-10-14T12:00:22.088Z,99809.81
2022-10-14T12:02:55.467Z,99807.78
2022-10-14T12:05:36.265Z,99804.00
2022-10-14T12:08:15.026Z,99796.22
2022-10-14T12:10:46.798Z,99805.34
2022-10-14T12:13:17.225Z,99797.28
2022-10-14T12:15:51.533Z,99798.25
2022-10-14T12:18:20.281Z,99795.91
2022-10-14T12:20:53.344Z,99789.22
2022-10-14T12:23:33.765Z,99788.38
2022-10-14T12:26:07.735Z,99780.16
2022-10-14T12:28:37.500Z,99784.50
2022-10-14T12:31:27.471Z,99781.94
2022-10-14T12:34:32.318Z,99785.31
2022-10-14T12:37:01.435Z,99784.16
2022-10-14T12:39:34.662Z,99767.97
2022-10-14T12:42:05.316Z,99769.13
2022-10-14T12:44:45.479Z,99764.88
2022-10-14T12:47:24.412Z,99758.69
2022-10-14T12:49:56.055Z,99756.69
2022-10-14T12:52:27.931Z,99756.88
2022-10-14T12:54:56.867Z,99762.78
2022-10-14T12:57:29.551Z,99756.38
2022-10-14T13:00:00.289Z,99765.19
2022-10-14T13:02:38.532Z,99765.31
2022-10-14T13:05:10.419Z,99758.50
2022-10-14T13:07:44.832Z,99760.63
2022-10-14T13:10:46.941Z,99755.22
2022-10-14T13:13:52.218Z,99755.22
2022-10-14T13:17:12.016Z,99739.81
2022-10-14T13:19:45.671Z,99740.03
2022-10-14T13:22:36.675Z,99734.28
2022-10-14T13:25:11.990Z,99734.00
2022-10-14T13:27:48.817Z,99730.03
2022-10-14T13:30:20.953Z,99726.34
2022-10-14T13:32:54.484Z,99720.44
2022-10-14T13:35:30.277Z,99717.56
2022-10-14T13:38:01.134Z,99720.03
2022-10-14T13:40:35.395Z,99716.41
2022-10-14T13:43:08.349Z,99720.00
2022-10-14T13:45:42.290Z,99713.31
2022-10-14T13:48:14.875Z,99711.44
2022-10-14T13:50:44.689Z,99705.06
2022-10-14T13:53:20.640Z,99692.94
2022-10-14T13:55:54.665Z,99697.41
2022-10-14T13:58:24.322Z,99691.44
2022-10-14T14:01:03.731Z,99690.59
2022-10-14T14:03:35.167Z,99684.63
2022-10-14T14:06:10.882Z,99686.66
2022-10-14T14:08:48.476Z,99688.56
2022-10-14T14:11:22.180Z,99688.56
2022-10-14T14:14:00.205Z,99689.69
2022-10-14T14:16:33.180Z,99681.56
2022-10-14T14:19:08.901Z,99687.22
2022-10-14T14:21:45.872Z,99679.09
2022-10-14T14:24:24.857Z,99674.75
2022-10-14T14:26:55.821Z,99662.66
2022-10-14T14:29:27.340Z,99648.03
2022-10-14T14:32:10.799Z,99650.94
2022-10-14T14:34:40.467Z,99660.84
2022-10-14T14:40:06.357Z,99653.81
2022-10-14T14:42:36.413Z,99640.22
2022-10-14T14:45:07.452Z,99634.31
2022-10-14T14:47:35.298Z,99632.13
2022-10-14T14:50:29.134Z,99628.00
2022-10-14T14:52:53.516Z,99627.28
2022-10-14T14:55:44.816Z,99629.66
2022-10-14T14:58:25.320Z,99631.84
2022-10-14T15:00:54.809Z,99630.88
2022-10-14T15:03:24.060Z,99623.75
2022-10-14T15:05:53.821Z,99623.91
2022-10-14T15:08:26.172Z,99617.59
2022-10-14T15:10:56.449Z,99612.09
2022-10-14T15:13:31.059Z,99618.13
2022-10-14T15:16:00.220Z,99617.47
2022-10-14T15:18:29.074Z,99613.75
2022-10-14T15:21:14.432Z,99612.59
2022-10-14T15:23:46.887Z,99617.81
2022-10-14T15:26:23.245Z,99619.09
2022-10-14T15:29:05.170Z,99614.53
2022-10-14T15:31:39.973Z,99614.47
2022-10-14T15:34:17.163Z,99606.75
2022-10-14T15:36:44.969Z,99601.81
2022-10-14T15:39:14.761Z,99609.13
2022-10-14T15:41:43.362Z,99592.31
2022-10-14T15:44:10.946Z,99604.22
2022-10-14T15:46:57.451Z,99595.63
2022-10-14T15:49:29.427Z,99594.22
2022-10-14T15:51:57.039Z,99596.78
2022-10-14T15:54:27.204Z,99586.81
2022-10-14T15:59:24.897Z,99583.53
2022-10-14T16:01:53.316Z,99583.28
2022-10-14T16:04:24.498Z,99589.88
2022-10-14T16:06:54.726Z,99579.63
2022-10-14T16:09:23.013Z,99579.41
2022-10-14T16:11:57.219Z,99576.28
2022-10-14T16:14:25.047Z,99577.66
2022-10-14T16:16:52.618Z,99571.28
2022-10-14T16:19:20.192Z,99576.03
2022-10-14T16:21:49.701Z,99581.78
2022-10-14T16:24:20.121Z,99581.28
2022-10-14T16:26:49.158Z,99568.47
2022-10-14T16:29:18.464Z,99558.84
2022-10-14T16:31:49.158Z,99548.84
2022-10-14T16:34:16.785Z,99565.22
2022-10-14T16:36:44.431Z,99564.16
2022-10-14T16:39:12.724Z,99555.47
2022-10-14T16:41:40.651Z,99555.56
2022-10-14T16:44:24.206Z,99552.28
2022-10-14T16:47:11.470Z,99549.00
2022-10-14T16:49:39.736Z,99542.41
2022-10-14T16:52:07.910Z,99552.63
2022-10-14T16:54:35.707Z,99548.63
2022-10-14T16:57:03.302Z,99546.75
2022-10-14T16:59:31.237Z,99545.94
2022-10-14T17:02:01.185Z,99557.94
2022-10-14T17:04:29.170Z,99554.16
2022-10-14T17:06:57.032Z,99556.97
2022-10-14T17:11:57.284Z,99560.97
2022-10-14T17:14:24.828Z,99564.66
2022-10-14T17:16:52.625Z,99565.88
2022-10-14T17:19:21.670Z,99570.63
2022-10-14T17:21:49.479Z,99571.78
2022-10-14T17:24:17.473Z,99563.53
2022-10-14T17:26:45.848Z,99569.56
2022-10-14T17:29:13.438Z,99562.03
2022-10-14T17:31:41.569Z,99556.97
2022-10-14T17:34:09.713Z,99560.28
2022-10-14T17:36:39.981Z,99563.19
2022-10-14T17:39:07.614Z,99571.53
2022-10-14T17:41:35.314Z,99573.41
2022-10-14T17:44:03.815Z,99563.91
2022-10-14T17:46:32.128Z,99562.97
2022-10-14T17:49:01.542Z,99565.06
2022-10-14T17:51:29.569Z,99563.44
2022-10-14T17:54:00.158Z,99574.72
2022-10-14T17:56:29.638Z,99572.25
2022-10-14T17:58:58.805Z,99564.41
2022-10-14T18:01:37.206Z,99568.25
2022-10-14T18:04:11.586Z,99556.28
2022-10-14T18:06:39.354Z,99557.38
2022-10-14T18:09:10.376Z,99542.63
2022-10-14T18:12:07.175Z,99541.09
2022-10-14T18:14:29.595Z,99549.34
2022-10-14T18:16:59.196Z,99548.28
2022-10-14T18:19:27.011Z,99561.13
2022-10-14T18:21:54.580Z,99559.69
2022-10-14T18:24:23.561Z,99552.31
2022-10-14T18:26:51.368Z,99555.72
2022-10-14T18:29:18.998Z,99549.38
2022-10-14T18:31:46.576Z,99542.81
2022-10-14T18:34:14.298Z,99528.69
2022-10-14T18:36:42.030Z,99529.59
2022-10-14T18:39:12.590Z,99528.22
2022-10-14T18:41:43.808Z,99528.47
2022-10-14T18:44:11.517Z,99519.53
2022-10-14T18:46:40.091Z,99516.47
2022-10-14T18:49:09.157Z,99514.00
2022-10-14T18:51:38.490Z,99507.22
2022-10-14T18:54:08.172Z,99508.38
2022-10-14T18:56:38.611Z,99508.97
2022-10-14T18:59:09.528Z,99508.38
2022-10-14T19:01:39.176Z,99505.00
2022-10-14T19:04:12.900Z,99510.41
2022-10-14T19:06:40.837Z,99507.59
2022-10-14T19:09:12.227Z,99509.47
2022-10-14T19:11:40.157Z,99492.34
2022-10-14T19:14:09.740Z,99493.16
2022-10-14T19:16:39.798Z,99494.06
2022-10-14T19:19:11.680Z,99489.25
2022-10-14T19:21:39.929Z,99488.22
2022-10-14T19:24:08.703Z,99485.31
2022-10-14T19:26:39.036Z,99480.94
2022-10-14T19:29:11.539Z,99475.53
2022-10-14T19:31:40.686Z,99471.69
2022-10-14T19:34:11.101Z,99470.97
2022-10-14T19:36:40.121Z,99469.22
2022-10-14T19:39:09.760Z,99477.91
2022-10-14T19:41:42.504Z,99476.84
2022-10-14T19:44:12.609Z,99479.06
2022-10-14T19:46:40.580Z,99479.78
2022-10-14T19:49:08.371Z,99478.84
2022-10-14T19:51:36.539Z,99468.25
2022-10-14T19:54:04.127Z,99476.00
2022-10-14T19:56:31.923Z,99470.00
2022-10-14T19:59:01.646Z,99474.50
2022-10-14T20:01:32.209Z,99473.44
2022-10-14T20:04:01.140Z,99474.25
2022-10-14T20:06:33.146Z,99470.06
2022-10-14T20:09:00.823Z,99461.72
2022-10-14T20:11:28.676Z,99456.88
2022-10-14T20:13:56.285Z,99461.72
2022-10-14T20:16:23.920Z,99466.53
2022-10-14T20:18:52.889Z,99471.69
2022-10-14T20:21:20.657Z,99458.09
2022-10-14T20:23:48.241Z,99463.84
2022-10-14T20:26:18.064Z,99472.25
2022-10-14T20:28:45.800Z,99466.50
2022-10-14T20:31:15.088Z,99465.81
2022-10-14T20:33:43.284Z,99458.91
2022-10-14T20:36:14.567Z,99458.44
2022-10-14T20:38:43.261Z,99450.22
2022-10-14T20:41:14.425Z,99446.22
2022-10-14T20:43:43.043Z,99444.81
2022-10-14T20:46:11.279Z,99440.47
2022-10-14T20:48:39.176Z,99438.59
2022-10-14T20:51:07.811Z,99442.81
2022-10-14T20:53:37.030Z,99437.06
2022-10-14T20:56:05.880Z,99428.03
2022-10-14T20:58:33.773Z,99429.28
2022-10-14T21:01:06.241Z,99424.06
2022-10-14T21:03:33.839Z,99422.09
2022-10-14T21:06:04.047Z,99411.63
2022-10-14T21:08:31.659Z,99418.00
2022-10-14T21:11:01.645Z,99410.25
2022-10-14T21:13:29.540Z,99412.38
2022-10-14T21:15:57.314Z,99401.06
2022-10-14T21:18:25.031Z,99405.78
2022-10-14T21:23:28.185Z,99402.97
2022-10-14T21:25:57.163Z,99402.00
2022-10-14T21:28:26.522Z,99406.44
2022-10-14T21:30:54.060Z,99406.69
2022-10-14T21:33:21.584Z,99397.75
2022-10-14T21:35:49.089Z,99396.38
2022-10-14T21:38:16.614Z,99394.81
2022-10-14T21:40:44.491Z,99384.69
2022-10-14T21:43:12.134Z,99386.47
2022-10-14T21:45:41.036Z,99390.72
2022-10-14T21:48:08.841Z,99386.97
2022-10-14T21:50:36.383Z,99384.44
2022-10-14T21:53:03.936Z,99377.97
2022-10-14T21:55:31.463Z,99384.38
2022-10-14T21:57:58.946Z,99372.97
2022-10-14T22:00:26.483Z,99373.22
2022-10-14T22:02:55.417Z,99361.44
2022-10-14T22:05:23.430Z,99379.28
2022-10-14T22:07:50.933Z,99368.97
2022-10-14T22:10:36.521Z,99365.88
2022-10-14T22:13:04.127Z,99351.91
2022-10-14T22:15:31.719Z,99347.78
2022-10-14T22:18:00.700Z,99350.00
2022-10-14T22:20:28.199Z,99347.06
2022-10-14T22:22:55.752Z,99356.47
2022-10-14T22:25:23.328Z,99341.41
2022-10-14T22:27:52.102Z,99335.44
2022-10-14T22:30:19.992Z,99330.69
2022-10-14T22:32:47.714Z,99339.22
2022-10-14T22:35:17.609Z,99334.38
2022-10-14T22:37:45.490Z,99343.03
2022-10-14T22:40:13.477Z,99345.06
2022-10-14T22:42:42.348Z,99339.78
2022-10-14T22:45:11.574Z,99337.91
2022-10-14T22:47:39.546Z,99323.41
2022-10-14T22:50:08.164Z,99327.97
2022-10-14T22:52:37.106Z,99319.88
2022-10-14T22:55:05.131Z,99334.81
2022-10-14T22:57:33.075Z,99332.50
2022-10-14T23:00:00.860Z,99321.75
2022-10-14T23:02:28.799Z,99315.78
2022-10-14T23:04:56.953Z,99311.84
2022-10-14T23:07:24.800Z,99317.81
2022-10-14T23:09:53.700Z,99328.03
2022-10-14T23:12:21.622Z,99325.16
2022-10-14T23:14:51.193Z,99313.66
2022-10-14T23:17:19.229Z,99304.16
2022-10-14T23:19:47.750Z,99302.19
2022-10-14T23:22:15.341Z,99299.22
2022-10-14T23:24:42.980Z,99292.19
2022-10-14T23:27:11.891Z,99289.34
2022-10-14T23:29:39.570Z,99300.72
2022-10-14T23:32:07.428Z,99309.88
2022-10-14T23:34:35.219Z,99304.38
2022-10-14T23:37:02.902Z,99305.31
2022-10-14T23:39:30.682Z,99301.03
2022-10-14T23:41:58.315Z,99299.91
2022-10-14T23:44:27.220Z,99299.41
2022-10-14T23:46:54.935Z,99290.72
2022-10-14T23:49:25.892Z,99284.13
2022-10-14T23:51:54.453Z,99262.75
2022-10-14T23:54:22.154Z,99277.72
2022-10-14T23:56:49.708Z,99277.72
2022-10-14T23:59:17.453Z,99286.16
